sensor_id;sensor_type;location;lat;lon;timestamp;temperature;humidity
53645;DHT22;39547;45.554;12.068;2022-09-09T00:07:57;22.30;76.60
53645;DHT22;39547;45.554;12.068;2022-09-09T00:14:00;22.20;76.80
53645;DHT22;39547;45.554;12.068;2022-09-09T00:20:12;22.20;76.90
53645;DHT22;39547;45.554;12.068;2022-09-09T00:26:16;22.20;76.90
53645;DHT22;39547;45.554;12.068;2022-09-09T00:32:20;22.20;77.00
53645;DHT22;39547;45.554;12.068;2022-09-09T00:44:30;22.20;77.00
53645;DHT22;39547;45.554;12.068;2022-09-09T00:56:37;22.10;77.30
53645;DHT22;39547;45.554;12.068;2022-09-09T01:15:08;21.90;77.70
53645;DHT22;39547;45.554;12.068;2022-09-09T01:27:35;21.80;77.70
53645;DHT22;39547;45.554;12.068;2022-09-09T01:33:38;21.80;78.10
53645;DHT22;39547;45.554;12.068;2022-09-09T01:39:40;21.70;78.80
53645;DHT22;39547;45.554;12.068;2022-09-09T01:45:45;21.60;78.40
53645;DHT22;39547;45.554;12.068;2022-09-09T01:51:49;21.70;78.20
53645;DHT22;39547;45.554;12.068;2022-09-09T02:04:20;21.70;78.00
53645;DHT22;39547;45.554;12.068;2022-09-09T02:10:33;21.70;77.80
53645;DHT22;39547;45.554;12.068;2022-09-09T02:16:59;21.70;77.70
53645;DHT22;39547;45.554;12.068;2022-09-09T02:23:16;21.70;77.70
53645;DHT22;39547;45.554;12.068;2022-09-09T02:29:33;21.70;77.80
53645;DHT22;39547;45.554;12.068;2022-09-09T02:35:35;21.70;77.70
53645;DHT22;39547;45.554;12.068;2022-09-09T02:41:40;21.70;77.70
53645;DHT22;39547;45.554;12.068;2022-09-09T02:47:50;21.60;77.80
53645;DHT22;39547;45.554;12.068;2022-09-09T02:59:57;21.60;77.70
53645;DHT22;39547;45.554;12.068;2022-09-09T03:05:59;21.50;77.80
53645;DHT22;39547;45.554;12.068;2022-09-09T03:12:02;21.50;77.70
53645;DHT22;39547;45.554;12.068;2022-09-09T03:18:07;21.50;77.90
53645;DHT22;39547;45.554;12.068;2022-09-09T03:24:08;21.50;77.70
53645;DHT22;39547;45.554;12.068;2022-09-09T03:30:10;21.50;78.10
53645;DHT22;39547;45.554;12.068;2022-09-09T03:36:12;21.40;78.40
53645;DHT22;39547;45.554;12.068;2022-09-09T03:42:14;21.30;78.30
53645;DHT22;39547;45.554;12.068;2022-09-09T03:48:17;21.30;78.30
53645;DHT22;39547;45.554;12.068;2022-09-09T03:54:19;21.30;78.20
53645;DHT22;39547;45.554;12.068;2022-09-09T04:00:20;21.40;78.10
53645;DHT22;39547;45.554;12.068;2022-09-09T04:06:46;21.40;78.00
53645;DHT22;39547;45.554;12.068;2022-09-09T04:12:49;21.40;77.90
53645;DHT22;39547;45.554;12.068;2022-09-09T04:18:50;21.40;78.00
53645;DHT22;39547;45.554;12.068;2022-09-09T04:24:53;21.40;77.90
53645;DHT22;39547;45.554;12.068;2022-09-09T04:30:55;21.30;77.90
53645;DHT22;39547;45.554;12.068;2022-09-09T04:37:03;21.40;77.90
53645;DHT22;39547;45.554;12.068;2022-09-09T04:43:04;21.30;77.90
53645;DHT22;39547;45.554;12.068;2022-09-09T04:49:06;21.40;77.80
53645;DHT22;39547;45.554;12.068;2022-09-09T04:55:09;21.40;77.80
53645;DHT22;39547;45.554;12.068;2022-09-09T05:01:12;21.50;77.70
53645;DHT22;39547;45.554;12.068;2022-09-09T05:07:15;21.50;77.80
53645;DHT22;39547;45.554;12.068;2022-09-09T05:13:17;21.50;77.60
53645;DHT22;39547;45.554;12.068;2022-09-09T05:19:18;21.50;77.60
53645;DHT22;39547;45.554;12.068;2022-09-09T05:25:24;21.60;77.50
53645;DHT22;39547;45.554;12.068;2022-09-09T05:31:30;21.70;77.40
53645;DHT22;39547;45.554;12.068;2022-09-09T05:37:31;21.70;77.30
53645;DHT22;39547;45.554;12.068;2022-09-09T05:43:33;21.80;77.10
53645;DHT22;39547;45.554;12.068;2022-09-09T05:49:39;21.90;77.00
53645;DHT22;39547;45.554;12.068;2022-09-09T05:55:41;22.00;76.80
53645;DHT22;39547;45.554;12.068;2022-09-09T06:01:43;22.10;76.70
53645;DHT22;39547;45.554;12.068;2022-09-09T06:07:54;22.20;76.60
53645;DHT22;39547;45.554;12.068;2022-09-09T06:13:56;22.30;76.50
53645;DHT22;39547;45.554;12.068;2022-09-09T06:19:57;22.30;76.30
53645;DHT22;39547;45.554;12.068;2022-09-09T06:26:00;22.40;76.20
53645;DHT22;39547;45.554;12.068;2022-09-09T06:32:02;22.50;76.00
53645;DHT22;39547;45.554;12.068;2022-09-09T06:38:04;22.60;75.90
53645;DHT22;39547;45.554;12.068;2022-09-09T06:44:07;22.80;75.60
53645;DHT22;39547;45.554;12.068;2022-09-09T06:50:15;22.90;75.40
53645;DHT22;39547;45.554;12.068;2022-09-09T07:02:19;23.00;75.00
53645;DHT22;39547;45.554;12.068;2022-09-09T07:08:22;23.00;75.10
53645;DHT22;39547;45.554;12.068;2022-09-09T07:14:23;23.20;74.90
53645;DHT22;39547;45.554;12.068;2022-09-09T07:20:35;23.50;74.60
53645;DHT22;39547;45.554;12.068;2022-09-09T07:26:38;23.80;74.10
53645;DHT22;39547;45.554;12.068;2022-09-09T07:32:40;24.00;73.80
53645;DHT22;39547;45.554;12.068;2022-09-09T07:38:45;24.20;73.90
53645;DHT22;39547;45.554;12.068;2022-09-09T07:44:47;24.20;73.70
53645;DHT22;39547;45.554;12.068;2022-09-09T07:50:50;24.10;74.20
53645;DHT22;39547;45.554;12.068;2022-09-09T07:56:52;24.30;74.40
53645;DHT22;39547;45.554;12.068;2022-09-09T08:02:56;24.50;73.90
53645;DHT22;39547;45.554;12.068;2022-09-09T08:08:57;24.70;73.60
53645;DHT22;39547;45.554;12.068;2022-09-09T08:14:59;24.70;73.40
53645;DHT22;39547;45.554;12.068;2022-09-09T08:21:08;24.90;73.20
53645;DHT22;39547;45.554;12.068;2022-09-09T08:27:10;24.90;72.80
53645;DHT22;39547;45.554;12.068;2022-09-09T08:33:12;24.90;72.60
53645;DHT22;39547;45.554;12.068;2022-09-09T08:39:15;25.20;72.20
53645;DHT22;39547;45.554;12.068;2022-09-09T08:45:23;25.70;71.00
53645;DHT22;39547;45.554;12.068;2022-09-09T08:51:28;26.10;70.20
53645;DHT22;39547;45.554;12.068;2022-09-09T08:57:31;26.00;69.50
53645;DHT22;39547;45.554;12.068;2022-09-09T09:10:37;26.40;68.60
53645;DHT22;39547;45.554;12.068;2022-09-09T09:16:13;26.60;68.30
53645;DHT22;39547;45.554;12.068;2022-09-09T09:22:19;26.80;67.60
53645;DHT22;39547;45.554;12.068;2022-09-09T09:28:24;26.90;66.70
53645;DHT22;39547;45.554;12.068;2022-09-09T09:34:29;26.30;67.40
53645;DHT22;39547;45.554;12.068;2022-09-09T09:40:31;25.70;68.40
53645;DHT22;39547;45.554;12.068;2022-09-09T09:46:35;25.30;68.90
53645;DHT22;39547;45.554;12.068;2022-09-09T09:52:53;25.00;69.80
53645;DHT22;39547;45.554;12.068;2022-09-09T09:58:55;25.10;70.00
53645;DHT22;39547;45.554;12.068;2022-09-09T10:05:17;25.50;69.40
53645;DHT22;39547;45.554;12.068;2022-09-09T10:11:32;25.80;68.00
53645;DHT22;39547;45.554;12.068;2022-09-09T10:23:56;27.10;64.80
53645;DHT22;39547;45.554;12.068;2022-09-09T10:30:07;27.20;64.90
53645;DHT22;39547;45.554;12.068;2022-09-09T10:36:17;27.40;64.30
53645;DHT22;39547;45.554;12.068;2022-09-09T10:42:20;27.40;64.70
53645;DHT22;39547;45.554;12.068;2022-09-09T11:00:48;27.90;62.00
53645;DHT22;39547;45.554;12.068;2022-09-09T11:06:53;28.00;61.00
53645;DHT22;39547;45.554;12.068;2022-09-09T11:12:57;28.30;60.90
53645;DHT22;39547;45.554;12.068;2022-09-09T11:19:02;28.50;59.70
53645;DHT22;39547;45.554;12.068;2022-09-09T11:25:08;28.40;60.50
53645;DHT22;39547;45.554;12.068;2022-09-09T11:43:28;28.80;57.60
53645;DHT22;39547;45.554;12.068;2022-09-09T11:49:41;28.50;58.90
53645;DHT22;39547;45.554;12.068;2022-09-09T11:55:42;28.10;60.20
53645;DHT22;39547;45.554;12.068;2022-09-09T12:01:44;27.80;61.10
53645;DHT22;39547;45.554;12.068;2022-09-09T12:07:55;27.70;61.70
53645;DHT22;39547;45.554;12.068;2022-09-09T12:13:58;27.70;62.10
53645;DHT22;39547;45.554;12.068;2022-09-09T12:26:24;27.50;62.60
53645;DHT22;39547;45.554;12.068;2022-09-09T12:32:27;27.30;62.60
53645;DHT22;39547;45.554;12.068;2022-09-09T12:44:31;27.10;63.10
53645;DHT22;39547;45.554;12.068;2022-09-09T12:50:43;26.80;63.30
53645;DHT22;39547;45.554;12.068;2022-09-09T12:56:46;26.60;63.90
53645;DHT22;39547;45.554;12.068;2022-09-09T13:02:53;26.50;64.00
53645;DHT22;39547;45.554;12.068;2022-09-09T13:08:55;26.40;64.20
53645;DHT22;39547;45.554;12.068;2022-09-09T13:14:56;26.30;64.40
53645;DHT22;39547;45.554;12.068;2022-09-09T13:20:58;26.20;64.40
53645;DHT22;39547;45.554;12.068;2022-09-09T13:27:00;26.00;64.80
53645;DHT22;39547;45.554;12.068;2022-09-09T13:39:15;24.20;73.70
53645;DHT22;39547;45.554;12.068;2022-09-09T13:45:20;22.70;76.80
53645;DHT22;39547;45.554;12.068;2022-09-09T13:51:28;21.60;82.70
53645;DHT22;39547;45.554;12.068;2022-09-09T13:57:30;20.70;88.10
53645;DHT22;39547;45.554;12.068;2022-09-09T14:03:32;20.70;89.20
53645;DHT22;39547;45.554;12.068;2022-09-09T14:09:34;20.70;90.20
53645;DHT22;39547;45.554;12.068;2022-09-09T14:15:35;21.30;91.20
53645;DHT22;39547;45.554;12.068;2022-09-09T14:21:37;21.80;91.10
53645;DHT22;39547;45.554;12.068;2022-09-09T14:27:39;22.70;92.00
53645;DHT22;39547;45.554;12.068;2022-09-09T14:33:40;23.20;90.80
53645;DHT22;39547;45.554;12.068;2022-09-09T14:39:42;23.70;91.50
53645;DHT22;39547;45.554;12.068;2022-09-09T14:45:44;24.40;91.30
53645;DHT22;39547;45.554;12.068;2022-09-09T14:51:46;24.60;90.50
53645;DHT22;39547;45.554;12.068;2022-09-09T14:57:47;24.50;89.90
53645;DHT22;39547;45.554;12.068;2022-09-09T15:03:53;24.30;89.80
53645;DHT22;39547;45.554;12.068;2022-09-09T15:09:55;24.00;90.20
53645;DHT22;39547;45.554;12.068;2022-09-09T15:16:00;23.80;90.40
53645;DHT22;39547;45.554;12.068;2022-09-09T15:22:04;23.60;90.60
53645;DHT22;39547;45.554;12.068;2022-09-09T15:28:06;23.60;90.80
53645;DHT22;39547;45.554;12.068;2022-09-09T15:34:07;23.70;90.80
53645;DHT22;39547;45.554;12.068;2022-09-09T15:40:09;23.70;90.80
53645;DHT22;39547;45.554;12.068;2022-09-09T15:52:19;23.90;90.40
53645;DHT22;39547;45.554;12.068;2022-09-09T15:58:20;23.90;90.40
53645;DHT22;39547;45.554;12.068;2022-09-09T16:04:22;24.60;90.70
53645;DHT22;39547;45.554;12.068;2022-09-09T16:10:26;25.60;89.30
53645;DHT22;39547;45.554;12.068;2022-09-09T16:16:29;25.70;89.50
53645;DHT22;39547;45.554;12.068;2022-09-09T16:22:31;25.10;89.00
53645;DHT22;39547;45.554;12.068;2022-09-09T16:28:32;24.50;89.90
53645;DHT22;39547;45.554;12.068;2022-09-09T16:34:33;24.00;90.50
53645;DHT22;39547;45.554;12.068;2022-09-09T16:40:34;23.60;90.90
53645;DHT22;39547;45.554;12.068;2022-09-09T16:46:38;23.40;91.30
53645;DHT22;39547;45.554;12.068;2022-09-09T16:52:40;23.30;91.20
53645;DHT22;39547;45.554;12.068;2022-09-09T16:58:41;23.10;91.20
53645;DHT22;39547;45.554;12.068;2022-09-09T17:04:44;23.00;91.40
53645;DHT22;39547;45.554;12.068;2022-09-09T17:10:45;22.80;91.50
53645;DHT22;39547;45.554;12.068;2022-09-09T17:16:46;22.70;91.50
53645;DHT22;39547;45.554;12.068;2022-09-09T17:22:48;22.60;91.70
53645;DHT22;39547;45.554;12.068;2022-09-09T17:28:50;22.50;91.70
53645;DHT22;39547;45.554;12.068;2022-09-09T17:34:51;22.40;91.90
53645;DHT22;39547;45.554;12.068;2022-09-09T17:41:00;22.30;91.80
53645;DHT22;39547;45.554;12.068;2022-09-09T17:47:02;22.20;91.90
53645;DHT22;39547;45.554;12.068;2022-09-09T17:53:04;22.20;91.90
53645;DHT22;39547;45.554;12.068;2022-09-09T17:59:06;22.10;92.00
53645;DHT22;39547;45.554;12.068;2022-09-09T18:05:08;22.00;92.00
53645;DHT22;39547;45.554;12.068;2022-09-09T18:11:11;22.00;92.00
53645;DHT22;39547;45.554;12.068;2022-09-09T18:17:12;22.00;92.10
53645;DHT22;39547;45.554;12.068;2022-09-09T18:23:14;21.90;92.20
53645;DHT22;39547;45.554;12.068;2022-09-09T18:29:16;21.90;92.30
53645;DHT22;39547;45.554;12.068;2022-09-09T18:35:19;21.80;92.30
53645;DHT22;39547;45.554;12.068;2022-09-09T18:41:25;21.80;92.20
53645;DHT22;39547;45.554;12.068;2022-09-09T18:47:26;21.80;92.10
53645;DHT22;39547;45.554;12.068;2022-09-09T18:53:27;21.70;92.10
53645;DHT22;39547;45.554;12.068;2022-09-09T18:59:29;21.60;92.10
53645;DHT22;39547;45.554;12.068;2022-09-09T19:05:30;21.50;92.10
53645;DHT22;39547;45.554;12.068;2022-09-09T19:11:31;21.50;92.20
53645;DHT22;39547;45.554;12.068;2022-09-09T19:17:33;21.50;92.30
53645;DHT22;39547;45.554;12.068;2022-09-09T19:23:36;21.50;92.40
53645;DHT22;39547;45.554;12.068;2022-09-09T19:29:38;21.40;92.30
53645;DHT22;39547;45.554;12.068;2022-09-09T19:35:40;21.40;92.30
53645;DHT22;39547;45.554;12.068;2022-09-09T19:41:41;21.40;92.20
53645;DHT22;39547;45.554;12.068;2022-09-09T19:47:42;21.30;92.20
53645;DHT22;39547;45.554;12.068;2022-09-09T19:53:45;21.30;92.10
53645;DHT22;39547;45.554;12.068;2022-09-09T19:59:47;21.20;92.10
53645;DHT22;39547;45.554;12.068;2022-09-09T20:05:48;21.20;92.20
53645;DHT22;39547;45.554;12.068;2022-09-09T20:11:49;21.10;92.40
53645;DHT22;39547;45.554;12.068;2022-09-09T20:17:51;21.20;92.30
53645;DHT22;39547;45.554;12.068;2022-09-09T20:23:52;21.10;92.50
53645;DHT22;39547;45.554;12.068;2022-09-09T20:29:53;21.10;92.30
53645;DHT22;39547;45.554;12.068;2022-09-09T20:35:55;21.10;92.10
53645;DHT22;39547;45.554;12.068;2022-09-09T20:41:56;21.00;91.80
53645;DHT22;39547;45.554;12.068;2022-09-09T20:47:57;20.90;91.90
53645;DHT22;39547;45.554;12.068;2022-09-09T20:54:00;20.80;92.00
53645;DHT22;39547;45.554;12.068;2022-09-09T21:00:04;20.80;92.10
53645;DHT22;39547;45.554;12.068;2022-09-09T21:06:08;20.80;92.10
53645;DHT22;39547;45.554;12.068;2022-09-09T21:12:09;20.70;92.10
53645;DHT22;39547;45.554;12.068;2022-09-09T21:18:10;20.70;92.20
53645;DHT22;39547;45.554;12.068;2022-09-09T21:24:12;20.70;92.20
53645;DHT22;39547;45.554;12.068;2022-09-09T21:30:13;20.60;90.00
53645;DHT22;39547;45.554;12.068;2022-09-09T21:36:14;20.40;89.30
53645;DHT22;39547;45.554;12.068;2022-09-09T21:42:16;20.40;91.60
53645;DHT22;39547;45.554;12.068;2022-09-09T21:48:17;20.40;91.80
53645;DHT22;39547;45.554;12.068;2022-09-09T21:54:19;20.30;92.00
53645;DHT22;39547;45.554;12.068;2022-09-09T22:00:20;20.30;92.10
53645;DHT22;39547;45.554;12.068;2022-09-09T22:06:24;20.30;91.90
53645;DHT22;39547;45.554;12.068;2022-09-09T22:12:25;20.30;92.30
53645;DHT22;39547;45.554;12.068;2022-09-09T22:18:26;20.40;92.30
53645;DHT22;39547;45.554;12.068;2022-09-09T22:24:27;20.30;92.30
53645;DHT22;39547;45.554;12.068;2022-09-09T22:30:29;20.30;92.50
53645;DHT22;39547;45.554;12.068;2022-09-09T22:36:30;20.30;92.50
53645;DHT22;39547;45.554;12.068;2022-09-09T22:42:31;20.30;92.50
53645;DHT22;39547;45.554;12.068;2022-09-09T22:48:35;20.40;92.50
53645;DHT22;39547;45.554;12.068;2022-09-09T22:54:39;20.30;92.40
53645;DHT22;39547;45.554;12.068;2022-09-09T23:00:40;20.40;92.60
53645;DHT22;39547;45.554;12.068;2022-09-09T23:06:41;20.40;91.90
53645;DHT22;39547;45.554;12.068;2022-09-09T23:12:45;20.40;92.60
53645;DHT22;39547;45.554;12.068;2022-09-09T23:18:48;20.30;92.70
53645;DHT22;39547;45.554;12.068;2022-09-09T23:24:52;20.40;92.80
53645;DHT22;39547;45.554;12.068;2022-09-09T23:30:54;20.30;92.90
53645;DHT22;39547;45.554;12.068;2022-09-09T23:37:09;20.30;92.40
53645;DHT22;39547;45.554;12.068;2022-09-09T23:43:11;20.30;92.60
53645;DHT22;39547;45.554;12.068;2022-09-09T23:49:12;20.30;92.80
53645;DHT22;39547;45.554;12.068;2022-09-09T23:55:13;20.30;92.60
